Perdido Beach, Alabama
Current Conditions -  °F | °C
As of 10:15 AM on Wednesday 22 Oct 2014 (Local Time) from KJKA Reporting Station
Clear Clear  
Wind Chill: 71°   Ceiling: Unl
Heat Index: 71°   Visibility: 10mi
Dew Point: 53°   Wind: 9mph
Humidity: 54%   Direction: 50°NE
Pressure: 30.09"   Gusts: NA
Location:  30.4162°N, 87.5594°W
Report Text: KJKA 221515Z AUTO 05008KT 10SM CLR 22/12 A3009 RMK AO2 T02150119
Loading
Personal Weather Stations






























Interactive Weather Map
Tropical Storm Tracking
New forecast layout! Learn more

10-Day Weather Forecast

Advertisements
Track Severe Weather on mobile